Terminal Aerodrome Forecast
Issued by NWS

Home | Current Version | Previous Version | Text Only | Print | Product List | Glossary On
Versions: 1 2 3 4 5 6 7 8 9 10 11 12 13 14 15 16 17 18 19 20 21
656
FTUS43 KIND 240804 AAA
TAFHUF
TAF AMD
KHUF 240804Z 2408/2506 VRB01KT P6SM FEW250
     FM241100 34004KT 4SM BR FEW070
     FM241300 35005KT P6SM FEW100=

USA.gov is the U.S. government's official web portal to all federal, state and local government web resources and services.